createdAt,value
2022-09-21T00:01:16.220Z,95250.00
2022-09-21T00:03:44.186Z,95254.81
2022-09-21T00:06:19.363Z,95242.72
2022-09-21T00:08:47.447Z,95258.00
2022-09-21T00:11:24.821Z,95255.09
2022-09-21T00:13:58.871Z,95255.88
2022-09-21T00:16:25.968Z,95258.81
2022-09-21T00:18:52.991Z,95249.56
2022-09-21T00:21:20.031Z,95261.19
2022-09-21T00:23:47.055Z,95257.75
2022-09-21T00:26:17.512Z,95263.03
2022-09-21T00:28:45.042Z,95252.75
2022-09-21T00:31:14.629Z,95255.41
2022-09-21T00:33:43.642Z,95248.56
2022-09-21T00:36:19.542Z,95254.63
2022-09-21T00:38:53.753Z,95244.34
2022-09-21T00:41:20.756Z,95252.50
2022-09-21T00:44:18.732Z,95255.38
2022-09-21T00:46:48.589Z,95263.81
2022-09-21T00:49:16.393Z,95253.78
2022-09-21T00:51:44.474Z,95260.66
2022-09-21T00:54:18.187Z,95247.00
2022-09-21T00:56:45.173Z,95251.19
2022-09-21T00:59:13.995Z,95246.19
2022-09-21T01:01:42.835Z,95249.09
2022-09-21T01:04:11.830Z,95248.06
2022-09-21T01:06:38.973Z,95244.34
2022-09-21T01:09:05.939Z,95250.41
2022-09-21T01:12:03.177Z,95253.56
2022-09-21T01:14:29.855Z,95257.72
2022-09-21T01:17:10.277Z,95242.25
2022-09-21T01:20:08.339Z,95242.19
2022-09-21T01:22:54.122Z,95240.66
2022-09-21T01:25:48.125Z,95232.25
2022-09-21T01:28:20.916Z,95233.81
2022-09-21T01:30:50.824Z,95233.53
2022-09-21T01:33:25.949Z,95235.31
2022-09-21T01:36:08.875Z,95223.50
2022-09-21T01:38:45.497Z,95235.13
2022-09-21T01:41:16.352Z,95234.22
2022-09-21T01:43:48.308Z,95232.97
2022-09-21T01:46:19.832Z,95231.66
2022-09-21T01:48:50.875Z,95220.09
2022-09-21T01:51:20.774Z,95229.56
2022-09-21T01:54:22.478Z,95237.44
2022-09-21T01:56:59.495Z,95230.09
2022-09-21T01:59:35.231Z,95232.47
2022-09-21T02:02:16.046Z,95233.75
2022-09-21T02:04:43.631Z,95222.44
2022-09-21T02:07:10.667Z,95234.28
2022-09-21T02:09:38.351Z,95225.34
2022-09-21T02:12:05.623Z,95235.84
2022-09-21T02:14:34.006Z,95246.91
2022-09-21T02:17:25.195Z,95241.59
2022-09-21T02:19:58.082Z,95237.44
2022-09-21T02:22:39.871Z,95233.00
2022-09-21T02:25:14.113Z,95244.59
2022-09-21T02:27:55.096Z,95244.81
2022-09-21T02:30:25.356Z,95239.56
2022-09-21T02:33:11.512Z,95246.91
2022-09-21T02:35:44.175Z,95240.53
2022-09-21T02:38:22.829Z,95247.72
2022-09-21T02:40:56.787Z,95241.66
2022-09-21T02:43:30.452Z,95241.13
2022-09-21T02:46:04.333Z,95252.41
2022-09-21T02:48:44.237Z,95240.34
2022-09-21T02:51:17.000Z,95254.09
2022-09-21T02:53:46.759Z,95247.06
2022-09-21T02:56:14.256Z,95254.94
2022-09-21T02:58:46.297Z,95247.34
2022-09-21T03:01:15.892Z,95252.03
2022-09-21T03:03:42.804Z,95240.56
2022-09-21T03:06:09.629Z,95249.88
2022-09-21T03:08:36.439Z,95249.19
2022-09-21T03:11:03.433Z,95259.78
2022-09-21T03:13:30.369Z,95256.41
2022-09-21T03:16:02.340Z,95256.50
2022-09-21T03:18:29.745Z,95254.22
2022-09-21T03:20:56.699Z,95256.38
2022-09-21T03:23:23.844Z,95256.94
2022-09-21T03:25:52.342Z,95247.59
2022-09-21T03:28:19.988Z,95251.41
2022-09-21T03:30:49.401Z,95258.03
2022-09-21T03:33:16.988Z,95248.19
2022-09-21T03:35:44.150Z,95246.56
2022-09-21T03:38:11.358Z,95250.78
2022-09-21T03:40:38.213Z,95249.97
2022-09-21T03:43:04.921Z,95260.75
2022-09-21T03:45:31.643Z,95256.56
2022-09-21T03:47:59.955Z,95256.97
2022-09-21T03:50:28.971Z,95258.38
2022-09-21T03:52:56.713Z,95261.19
2022-09-21T03:55:23.485Z,95257.03
2022-09-21T03:57:50.510Z,95262.94
2022-09-21T04:00:17.411Z,95266.25
2022-09-21T04:02:44.394Z,95264.59
2022-09-21T04:05:14.920Z,95272.47
2022-09-21T04:07:43.476Z,95247.59
2022-09-21T04:10:13.129Z,95258.59
2022-09-21T04:12:44.534Z,95271.47
2022-09-21T04:15:13.979Z,95270.22
2022-09-21T04:17:41.192Z,95261.50
2022-09-21T04:20:09.111Z,95270.97
2022-09-21T04:22:39.979Z,95268.88
2022-09-21T04:25:10.391Z,95267.16
2022-09-21T04:27:37.100Z,95263.66
2022-09-21T04:30:05.123Z,95265.81
2022-09-21T04:32:32.060Z,95269.47
2022-09-21T04:34:59.116Z,95263.91
2022-09-21T04:37:25.796Z,95267.97
2022-09-21T04:39:53.642Z,95275.50
2022-09-21T04:42:20.370Z,95258.59
2022-09-21T04:44:47.263Z,95267.81
2022-09-21T04:47:14.583Z,95265.72
2022-09-21T04:49:42.333Z,95276.78
2022-09-21T04:52:09.090Z,95279.38
2022-09-21T04:54:35.927Z,95276.63
2022-09-21T04:57:02.846Z,95291.13
2022-09-21T04:59:29.741Z,95283.03
2022-09-21T05:01:56.473Z,95275.94
2022-09-21T05:04:23.275Z,95287.19
2022-09-21T05:06:49.971Z,95290.19
2022-09-21T05:09:35.519Z,95294.03
2022-09-21T05:12:03.131Z,95283.94
2022-09-21T05:14:30.023Z,95287.41
2022-09-21T05:16:56.839Z,95286.00
2022-09-21T05:19:23.657Z,95288.16
2022-09-21T05:21:50.643Z,95291.72
2022-09-21T05:24:17.456Z,95274.59
2022-09-21T05:26:44.324Z,95284.06
2022-09-21T05:29:11.308Z,95286.16
2022-09-21T05:31:48.862Z,95281.84
2022-09-21T05:34:36.425Z,95284.06
2022-09-21T05:37:13.060Z,95283.59
2022-09-21T05:39:40.240Z,95280.28
2022-09-21T05:42:07.465Z,95287.78
2022-09-21T05:44:34.676Z,95290.97
2022-09-21T05:47:15.542Z,95279.50
2022-09-21T05:50:06.035Z,95282.16
2022-09-21T05:52:53.214Z,95277.94
2022-09-21T05:55:31.856Z,95273.50
2022-09-21T05:58:10.362Z,95276.47
2022-09-21T06:01:05.448Z,95270.09
2022-09-21T06:03:36.098Z,95267.50
2022-09-21T06:06:03.766Z,95268.56
2022-09-21T06:08:30.927Z,95278.56
2022-09-21T06:10:57.767Z,95272.25
2022-09-21T06:13:24.506Z,95279.34
2022-09-21T06:15:51.266Z,95263.28
2022-09-21T06:18:18.469Z,95270.66
2022-09-21T06:20:45.984Z,95275.69
2022-09-21T06:23:14.267Z,95282.75
2022-09-21T06:25:42.136Z,95279.59
2022-09-21T06:28:11.426Z,95281.66
2022-09-21T06:30:40.974Z,95290.03
2022-09-21T06:33:08.432Z,95273.69
2022-09-21T06:35:36.685Z,95284.56
2022-09-21T06:38:06.787Z,95291.56
2022-09-21T06:40:37.325Z,95285.53
2022-09-21T06:43:05.222Z,95294.78
2022-09-21T06:45:32.702Z,95284.06
2022-09-21T06:47:59.559Z,95279.66
2022-09-21T06:50:26.807Z,95289.97
2022-09-21T06:52:54.315Z,95284.63
2022-09-21T06:55:21.021Z,95295.25
2022-09-21T06:57:47.726Z,95284.00
2022-09-21T07:00:15.057Z,95294.97
2022-09-21T07:02:45.618Z,95302.59
2022-09-21T07:05:12.976Z,95301.84
2022-09-21T07:07:40.486Z,95287.03
2022-09-21T07:10:14.512Z,95305.84
2022-09-21T07:12:44.915Z,95295.13
2022-09-21T07:15:11.996Z,95293.91
2022-09-21T07:17:39.733Z,95292.13
2022-09-21T07:20:08.043Z,95295.78
2022-09-21T07:22:35.798Z,95287.25
2022-09-21T07:25:04.333Z,95291.34
2022-09-21T07:27:32.643Z,95288.03
2022-09-21T07:29:59.528Z,95291.41
2022-09-21T07:32:26.260Z,95286.44
2022-09-21T07:34:56.569Z,95285.22
2022-09-21T07:37:27.300Z,95287.06
2022-09-21T07:39:54.679Z,95298.47
2022-09-21T07:42:22.963Z,95295.94
2022-09-21T07:44:50.971Z,95289.53
2022-09-21T07:47:18.042Z,95295.44
2022-09-21T07:49:47.103Z,95294.84
2022-09-21T07:52:15.466Z,95293.88
2022-09-21T07:54:42.401Z,95270.66
2022-09-21T07:57:27.778Z,95296.81
2022-09-21T07:59:58.282Z,95293.78
2022-09-21T08:02:25.798Z,95292.81
2022-09-21T08:04:54.146Z,95283.06
2022-09-21T08:07:21.104Z,95282.94
2022-09-21T08:09:49.449Z,95280.53
2022-09-21T08:12:18.727Z,95280.53
2022-09-21T08:14:45.799Z,95287.22
2022-09-21T08:17:12.593Z,95280.50
2022-09-21T08:19:39.436Z,95285.28
2022-09-21T08:22:06.753Z,95289.13
2022-09-21T08:24:33.751Z,95283.75
2022-09-21T08:27:00.739Z,95287.69
2022-09-21T08:29:27.667Z,95283.94
2022-09-21T08:31:54.746Z,95275.97
2022-09-21T08:34:23.248Z,95273.47
2022-09-21T08:36:55.084Z,95271.97
2022-09-21T08:39:22.731Z,95264.31
2022-09-21T08:42:00.475Z,95272.41
2022-09-21T08:44:51.000Z,95261.00
2022-09-21T08:47:23.343Z,95270.25
2022-09-21T08:49:58.262Z,95263.44
2022-09-21T08:52:26.759Z,95257.34
2022-09-21T08:55:18.899Z,95254.06
2022-09-21T08:57:45.877Z,95253.50
2022-09-21T09:00:18.475Z,95255.69
2022-09-21T09:03:05.012Z,95246.03
2022-09-21T09:05:34.643Z,95238.41
2022-09-21T09:08:22.249Z,95235.44
2022-09-21T09:10:58.095Z,95237.06
2022-09-21T09:13:46.796Z,95227.09
2022-09-21T09:16:29.568Z,95233.34
2022-09-21T09:19:19.795Z,95236.66
2022-09-21T09:21:46.996Z,95226.00
2022-09-21T09:24:30.200Z,95219.53
2022-09-21T09:27:07.200Z,95218.13
2022-09-21T09:29:37.801Z,95220.50
2022-09-21T09:32:09.599Z,95220.91
2022-09-21T09:34:42.673Z,95209.59
2022-09-21T09:37:17.544Z,95215.88
2022-09-21T09:39:53.867Z,95204.78
2022-09-21T09:42:26.184Z,95207.63
2022-09-21T09:45:35.058Z,95205.53
2022-09-21T09:48:19.988Z,95200.91
2022-09-21T09:50:46.975Z,95197.63
2022-09-21T09:53:18.296Z,95205.00
2022-09-21T09:55:47.966Z,95195.75
2022-09-21T09:58:45.076Z,95192.50
2022-09-21T10:01:39.602Z,95198.53
2022-09-21T10:04:08.859Z,95189.88
2022-09-21T10:06:35.704Z,95181.88
2022-09-21T10:09:18.259Z,95185.66
2022-09-21T10:11:45.353Z,95175.50
2022-09-21T10:14:19.183Z,95175.00
2022-09-21T10:16:46.470Z,95177.22
2022-09-21T10:19:21.244Z,95161.91
2022-09-21T10:21:52.317Z,95180.53
2022-09-21T10:24:34.155Z,95168.47
2022-09-21T10:27:05.331Z,95167.06
2022-09-21T10:29:40.974Z,95152.78
2022-09-21T10:32:14.759Z,95157.38
2022-09-21T10:35:01.092Z,95156.31
2022-09-21T10:37:29.409Z,95161.56
2022-09-21T10:39:57.207Z,95155.47
2022-09-21T10:42:24.001Z,95148.88
2022-09-21T10:45:05.143Z,95139.09
2022-09-21T10:47:39.191Z,95146.75
2022-09-21T10:50:20.770Z,95135.56
2022-09-21T10:52:48.869Z,95139.19
2022-09-21T10:55:21.882Z,95136.84
2022-09-21T10:57:51.076Z,95136.72
2022-09-21T11:00:34.890Z,95137.16
2022-09-21T11:03:26.727Z,95145.03
2022-09-21T11:05:55.114Z,95129.13
2022-09-21T11:08:32.856Z,95118.38
2022-09-21T11:11:21.451Z,95125.25
2022-09-21T11:14:05.494Z,95117.38
2022-09-21T11:16:54.467Z,95124.78
2022-09-21T11:19:36.339Z,95122.47
2022-09-21T11:22:15.016Z,95117.31
2022-09-21T11:24:55.522Z,95127.44
2022-09-21T11:27:32.282Z,95128.41
2022-09-21T11:30:04.854Z,95126.56
2022-09-21T11:32:37.652Z,95128.53
2022-09-21T11:35:24.212Z,95121.97
2022-09-21T11:38:04.441Z,95122.03
2022-09-21T11:40:40.471Z,95088.41
2022-09-21T11:43:35.610Z,95105.00
2022-09-21T11:46:17.571Z,95120.69
2022-09-21T11:49:06.058Z,95128.22
2022-09-21T11:52:10.503Z,95143.56
2022-09-21T11:54:56.451Z,95153.41
2022-09-21T11:57:42.710Z,95150.88
2022-09-21T12:00:15.800Z,95145.34
2022-09-21T12:03:03.901Z,95145.81
2022-09-21T12:05:36.721Z,95150.31
2022-09-21T12:08:34.758Z,95150.09
2022-09-21T12:11:17.016Z,95153.31
2022-09-21T12:13:57.535Z,95153.00
2022-09-21T12:16:27.763Z,95159.72
2022-09-21T12:19:15.468Z,95154.81
2022-09-21T12:21:56.208Z,95160.38
2022-09-21T12:24:33.860Z,95168.44
2022-09-21T12:27:12.356Z,95158.25
2022-09-21T12:29:47.952Z,95161.22
2022-09-21T12:32:20.374Z,95157.97
2022-09-21T12:34:56.405Z,95158.59
2022-09-21T12:37:37.306Z,95162.94
2022-09-21T12:40:15.669Z,95154.38
2022-09-21T12:42:50.924Z,95155.19
2022-09-21T12:45:25.469Z,95153.94
2022-09-21T12:48:11.056Z,95149.47
2022-09-21T12:51:06.428Z,95144.84
2022-09-21T12:53:37.827Z,95140.16
2022-09-21T12:56:51.942Z,95130.69
2022-09-21T12:59:34.672Z,95129.31
2022-09-21T13:02:26.418Z,95145.84
2022-09-21T13:05:16.214Z,95150.53
2022-09-21T13:08:06.604Z,95148.75
2022-09-21T13:10:51.700Z,95143.50
2022-09-21T13:13:39.748Z,95132.47
2022-09-21T13:16:07.909Z,95143.09
2022-09-21T13:18:38.737Z,95138.03
2022-09-21T13:21:22.239Z,95140.44
2022-09-21T13:24:00.346Z,95131.47
2022-09-21T13:26:43.853Z,95135.28
2022-09-21T13:29:16.944Z,95135.97
2022-09-21T13:31:58.165Z,95130.97
2022-09-21T13:34:42.662Z,95130.88
2022-09-21T13:37:13.948Z,95125.91
2022-09-21T13:40:16.276Z,95124.72
2022-09-21T13:42:49.362Z,95114.09
2022-09-21T13:45:18.812Z,95118.97
2022-09-21T13:47:51.576Z,95113.81
2022-09-21T13:50:56.428Z,95111.88
2022-09-21T13:53:38.414Z,95109.09
2022-09-21T13:56:18.088Z,95105.38
2022-09-21T13:58:52.237Z,95103.50
2022-09-21T14:04:41.320Z,95105.28
2022-09-21T14:07:08.666Z,95097.47
2022-09-21T14:09:57.773Z,95084.44
2022-09-21T14:12:27.697Z,95097.28
2022-09-21T14:15:16.264Z,95109.69
2022-09-21T14:17:43.872Z,95103.34
2022-09-21T14:20:32.717Z,95106.63
2022-09-21T14:23:24.375Z,95110.34
2022-09-21T14:25:54.431Z,95099.19
2022-09-21T14:28:27.632Z,95109.31
2022-09-21T14:31:02.767Z,95095.53
2022-09-21T14:33:43.035Z,95098.78
2022-09-21T14:36:19.659Z,95099.53
2022-09-21T14:38:54.990Z,95087.38
2022-09-21T14:41:24.510Z,95089.59
2022-09-21T14:43:56.782Z,95085.22
2022-09-21T14:46:23.506Z,95094.75
2022-09-21T14:48:54.139Z,95092.41
2022-09-21T14:51:36.576Z,95103.91
2022-09-21T14:54:21.857Z,95097.00
2022-09-21T14:57:08.627Z,95099.88
2022-09-21T15:00:02.687Z,95102.63
2022-09-21T15:02:35.805Z,95101.38
2022-09-21T15:05:19.047Z,95102.66
2022-09-21T15:08:23.367Z,95103.91
2022-09-21T15:11:18.847Z,95110.72
2022-09-21T15:13:53.491Z,95094.44
2022-09-21T15:16:40.459Z,95103.69
2022-09-21T15:19:20.478Z,95111.38
2022-09-21T15:21:52.951Z,95115.13
2022-09-21T15:24:28.075Z,95121.94
2022-09-21T15:27:03.054Z,95113.78
2022-09-21T15:29:32.566Z,95117.75
2022-09-21T15:32:01.090Z,95123.84
2022-09-21T15:34:28.445Z,95126.31
2022-09-21T15:37:06.520Z,95129.13
2022-09-21T15:39:34.070Z,95125.47
2022-09-21T15:42:09.894Z,95140.03
2022-09-21T15:44:38.716Z,95137.16
2022-09-21T15:47:12.548Z,95143.00
2022-09-21T15:49:40.401Z,95132.25
2022-09-21T15:52:25.134Z,95138.88
2022-09-21T15:54:58.613Z,95148.19
2022-09-21T15:57:40.391Z,95148.31
2022-09-21T16:00:19.636Z,95153.75
2022-09-21T16:03:04.272Z,95154.25
2022-09-21T16:05:47.157Z,95172.56
2022-09-21T16:08:28.213Z,95159.91
2022-09-21T16:11:12.354Z,95165.59
2022-09-21T16:13:58.839Z,95167.09
2022-09-21T16:16:26.895Z,95165.59
2022-09-21T16:18:55.947Z,95171.22
2022-09-21T16:21:32.944Z,95172.00
2022-09-21T16:24:18.648Z,95173.38
2022-09-21T16:26:58.208Z,95169.81
2022-09-21T16:29:39.521Z,95166.50
2022-09-21T16:32:35.643Z,95174.16
2022-09-21T16:35:27.943Z,95178.97
2022-09-21T16:37:58.282Z,95171.59
2022-09-21T16:40:26.975Z,95186.00
2022-09-21T16:42:54.307Z,95174.66
2022-09-21T16:45:32.351Z,95186.34
2022-09-21T16:48:00.084Z,95175.88
2022-09-21T16:50:27.058Z,95189.19
2022-09-21T16:52:53.937Z,95193.59
2022-09-21T16:55:24.343Z,95194.97
2022-09-21T16:57:53.961Z,95203.66
2022-09-21T17:00:22.148Z,95204.19
2022-09-21T17:02:49.597Z,95211.38
2022-09-21T17:05:19.409Z,95205.16
2022-09-21T17:07:53.566Z,95214.78
2022-09-21T17:10:24.271Z,95223.38
2022-09-21T17:12:53.778Z,95231.31
2022-09-21T17:15:22.857Z,95219.41
2022-09-21T17:17:50.561Z,95232.72
2022-09-21T17:20:29.419Z,95232.59
2022-09-21T17:22:56.264Z,95236.53
2022-09-21T17:25:23.024Z,95240.19
2022-09-21T17:27:49.694Z,95243.84
2022-09-21T17:30:17.526Z,95239.69
2022-09-21T17:32:44.380Z,95247.56
2022-09-21T17:35:22.590Z,95253.47
2022-09-21T17:37:49.436Z,95266.53
2022-09-21T17:40:16.716Z,95270.91
2022-09-21T17:42:48.378Z,95267.84
2022-09-21T17:45:27.726Z,95269.25
2022-09-21T17:47:54.711Z,95263.72
2022-09-21T17:50:27.494Z,95268.44
2022-09-21T17:53:15.224Z,95268.66
2022-09-21T17:55:57.021Z,95261.56
2022-09-21T17:58:48.555Z,95272.41
2022-09-21T18:01:34.988Z,95273.50
2022-09-21T18:04:03.000Z,95279.25
2022-09-21T18:06:29.992Z,95280.78
2022-09-21T18:08:57.933Z,95289.81
2022-09-21T18:11:27.560Z,95281.94
2022-09-21T18:14:15.394Z,95290.38
2022-09-21T18:17:36.162Z,95283.94
2022-09-21T18:20:35.358Z,95282.09
2022-09-21T18:23:20.969Z,95291.59
2022-09-21T18:25:55.239Z,95301.16
2022-09-21T18:28:25.069Z,95302.53
2022-09-21T18:31:14.885Z,95298.66
2022-09-21T18:33:56.979Z,95296.06
2022-09-21T18:36:42.475Z,95308.75
2022-09-21T18:39:22.469Z,95317.28
2022-09-21T18:42:10.852Z,95315.09
2022-09-21T18:45:02.876Z,95315.44
2022-09-21T18:47:59.895Z,95326.56
2022-09-21T18:50:36.716Z,95310.38
2022-09-21T18:53:15.697Z,95309.84
2022-09-21T18:55:42.777Z,95312.47
2022-09-21T18:58:10.338Z,95309.75
2022-09-21T19:00:37.643Z,95318.38
2022-09-21T19:03:23.623Z,95318.72
2022-09-21T19:06:08.630Z,95321.50
2022-09-21T19:08:44.907Z,95304.69
2022-09-21T19:11:19.516Z,95318.16
2022-09-21T19:14:12.181Z,95309.91
2022-09-21T19:16:54.302Z,95307.22
2022-09-21T19:19:37.041Z,95309.66
2022-09-21T19:22:31.173Z,95306.94
2022-09-21T19:25:12.452Z,95308.97
2022-09-21T19:27:43.103Z,95310.97
2022-09-21T19:30:14.351Z,95313.88
2022-09-21T19:32:44.459Z,95317.72
2022-09-21T19:35:27.250Z,95304.81
2022-09-21T19:37:56.973Z,95313.81
2022-09-21T19:40:30.219Z,95303.31
2022-09-21T19:43:06.257Z,95308.59
2022-09-21T19:45:52.037Z,95307.25
2022-09-21T19:48:22.792Z,95306.72
2022-09-21T19:50:55.107Z,95318.56
2022-09-21T19:53:41.477Z,95304.31
2022-09-21T19:56:30.029Z,95313.84
2022-09-21T19:59:15.805Z,95316.97
2022-09-21T20:02:01.751Z,95299.59
2022-09-21T20:04:34.636Z,95310.69
2022-09-21T20:07:11.803Z,95304.34
2022-09-21T20:09:45.433Z,95313.75
2022-09-21T20:12:40.271Z,95322.28
2022-09-21T20:15:15.855Z,95310.06
2022-09-21T20:18:00.207Z,95325.94
2022-09-21T20:20:28.701Z,95325.16
2022-09-21T20:22:56.215Z,95332.81
2022-09-21T20:25:27.815Z,95328.28
2022-09-21T20:27:56.701Z,95323.59
2022-09-21T20:30:26.455Z,95324.09
2022-09-21T20:32:56.981Z,95327.03
2022-09-21T20:35:28.099Z,95333.06
2022-09-21T20:37:59.870Z,95335.97
2022-09-21T20:40:29.113Z,95333.56
2022-09-21T20:42:57.485Z,95333.09
2022-09-21T20:45:24.870Z,95330.38
2022-09-21T20:47:53.466Z,95334.91
2022-09-21T20:50:21.325Z,95331.22
2022-09-21T20:52:52.240Z,95334.91
2022-09-21T20:55:20.412Z,95332.28
2022-09-21T20:57:47.310Z,95327.28
2022-09-21T21:00:16.117Z,95334.91
2022-09-21T21:02:43.299Z,95340.44
2022-09-21T21:05:11.383Z,95338.34
2022-09-21T21:07:42.473Z,95331.22
2022-09-21T21:10:14.376Z,95331.50
2022-09-21T21:12:42.303Z,95334.38
2022-09-21T21:15:10.210Z,95337.03
2022-09-21T21:17:39.183Z,95317.50
2022-09-21T21:20:07.178Z,95333.81
2022-09-21T21:22:35.317Z,95333.84
2022-09-21T21:25:02.202Z,95335.94
2022-09-21T21:27:29.102Z,95338.06
2022-09-21T21:29:56.429Z,95340.50
2022-09-21T21:32:26.262Z,95338.06
2022-09-21T21:34:54.467Z,95334.34
2022-09-21T21:37:24.927Z,95340.72
2022-09-21T21:39:55.507Z,95329.09
2022-09-21T21:42:24.934Z,95337.53
2022-09-21T21:44:52.025Z,95325.44
2022-09-21T21:50:06.501Z,95328.56
2022-09-21T21:52:33.331Z,95333.84
2022-09-21T21:55:00.210Z,95324.91
2022-09-21T21:57:27.073Z,95337.53
2022-09-21T21:59:54.137Z,95331.47
2022-09-21T22:02:20.865Z,95326.75
2022-09-21T22:04:47.933Z,95334.13
2022-09-21T22:07:14.787Z,95336.50
2022-09-21T22:09:41.733Z,95322.00
2022-09-21T22:12:11.995Z,95326.34
2022-09-21T22:14:38.914Z,95327.25
2022-09-21T22:17:05.643Z,95329.59
2022-09-21T22:19:33.010Z,95321.44
2022-09-21T22:22:00.033Z,95305.31
2022-09-21T22:24:26.731Z,95317.16
2022-09-21T22:26:53.554Z,95323.72
2022-09-21T22:29:20.343Z,95314.03
2022-09-21T22:31:48.915Z,95313.84
2022-09-21T22:34:16.584Z,95304.34
2022-09-21T22:36:44.038Z,95237.25
2022-09-21T22:39:12.239Z,95324.31
2022-09-21T22:41:41.114Z,95320.16
2022-09-21T22:44:08.696Z,95320.97
2022-09-21T22:46:36.102Z,95326.72
2022-09-21T22:49:03.332Z,95323.81
2022-09-21T22:51:30.366Z,95330.72
2022-09-21T22:53:57.886Z,95333.59
2022-09-21T22:56:32.644Z,95335.44
2022-09-21T22:59:02.539Z,95333.03
2022-09-21T23:01:40.455Z,95337.28
2022-09-21T23:04:13.168Z,95330.69
2022-09-21T23:06:42.872Z,95346.06
2022-09-21T23:09:15.252Z,95346.63
2022-09-21T23:11:47.192Z,95344.00
2022-09-21T23:14:15.865Z,95336.94
2022-09-21T23:16:43.415Z,95346.41
2022-09-21T23:19:15.710Z,95336.75
2022-09-21T23:21:49.636Z,95333.81
2022-09-21T23:24:17.456Z,95340.19
2022-09-21T23:26:45.288Z,95335.38
2022-09-21T23:29:14.902Z,95338.06
2022-09-21T23:31:45.054Z,95336.31
2022-09-21T23:34:13.263Z,95331.06
2022-09-21T23:36:40.919Z,95334.25
2022-09-21T23:39:11.557Z,95336.88
2022-09-21T23:41:38.281Z,95330.00
2022-09-21T23:44:05.091Z,95332.69
2022-09-21T23:46:34.441Z,95335.00
2022-09-21T23:49:01.951Z,95332.72
2022-09-21T23:51:30.096Z,95327.13
2022-09-21T23:53:58.048Z,95318.91
2022-09-21T23:56:25.515Z,95326.41
2022-09-21T23:58:52.938Z,95315.19
